createdAt,value
2022-11-23T00:00:06.128Z,44.15
2022-11-23T00:01:06.738Z,40.44
2022-11-23T00:02:06.138Z,39.48
2022-11-23T00:03:06.082Z,40.77
2022-11-23T00:04:06.071Z,42.86
2022-11-23T00:05:06.094Z,46.89
2022-11-23T00:06:06.050Z,45.60
2022-11-23T00:07:06.098Z,40.28
2022-11-23T00:08:06.197Z,40.28
2022-11-23T00:09:06.028Z,42.70
2022-11-23T00:10:06.050Z,51.88
2022-11-23T00:11:06.015Z,48.50
2022-11-23T00:12:06.002Z,52.53
2022-11-23T00:13:05.994Z,57.69
2022-11-23T00:14:05.989Z,46.73
2022-11-23T00:15:06.003Z,45.12
2022-11-23T00:16:05.969Z,45.44
2022-11-23T00:17:05.969Z,46.73
2022-11-23T00:18:05.957Z,46.25
2022-11-23T00:19:05.955Z,49.47
2022-11-23T00:20:05.974Z,47.21
2022-11-23T00:21:05.935Z,50.76
2022-11-23T00:22:05.930Z,44.31
2022-11-23T00:23:05.922Z,43.34
2022-11-23T00:24:05.910Z,47.53
2022-11-23T00:25:06.230Z,41.89
2022-11-23T00:26:05.893Z,42.06
2022-11-23T00:27:05.889Z,43.51
2022-11-23T00:28:05.880Z,45.76
2022-11-23T00:29:05.866Z,43.18
2022-11-23T00:30:05.890Z,41.25
2022-11-23T00:31:05.853Z,40.77
2022-11-23T00:32:05.847Z,47.37
2022-11-23T00:33:05.832Z,48.98
2022-11-23T00:34:05.825Z,44.63
2022-11-23T00:35:05.848Z,45.76
2022-11-23T00:36:05.822Z,43.99
2022-11-23T00:37:05.795Z,46.08
2022-11-23T00:38:05.797Z,43.67
2022-11-23T00:39:05.783Z,43.51
2022-11-23T00:40:05.808Z,44.63
2022-11-23T00:41:05.775Z,48.66
2022-11-23T00:42:05.763Z,43.51
2022-11-23T00:43:05.812Z,41.41
2022-11-23T00:44:05.737Z,47.53
2022-11-23T00:45:06.764Z,46.73
2022-11-23T00:46:05.747Z,47.21
2022-11-23T00:47:06.720Z,43.18
2022-11-23T00:48:05.777Z,42.70
2022-11-23T00:49:05.710Z,42.86
2022-11-23T00:50:05.724Z,44.15
2022-11-23T00:51:05.700Z,48.18
2022-11-23T00:52:05.716Z,47.21
2022-11-23T00:53:05.667Z,42.38
2022-11-23T00:54:05.685Z,43.51
2022-11-23T00:55:05.699Z,44.15
2022-11-23T00:56:05.689Z,47.37
2022-11-23T00:57:05.639Z,49.47
2022-11-23T00:58:05.632Z,49.47
2022-11-23T00:59:05.619Z,48.82
2022-11-23T01:00:05.647Z,48.50
2022-11-23T01:01:05.670Z,49.95
2022-11-23T01:02:05.597Z,49.15
2022-11-23T01:03:05.577Z,51.40
2022-11-23T01:04:06.666Z,42.38
2022-11-23T01:05:05.801Z,44.31
2022-11-23T01:06:05.562Z,46.25
2022-11-23T01:07:05.608Z,57.36
2022-11-23T01:08:05.559Z,48.82
2022-11-23T01:09:05.547Z,58.33
2022-11-23T01:10:05.611Z,52.21
2022-11-23T01:11:05.528Z,48.18
2022-11-23T01:12:05.534Z,49.31
2022-11-23T01:13:05.512Z,52.85
2022-11-23T01:14:05.498Z,53.33
2022-11-23T01:15:05.539Z,52.53
2022-11-23T01:16:06.496Z,46.57
2022-11-23T01:17:05.482Z,48.02
2022-11-23T01:18:05.483Z,47.70
2022-11-23T01:19:05.556Z,41.57
2022-11-23T01:20:05.495Z,40.93
2022-11-23T01:21:05.447Z,41.25
2022-11-23T01:22:05.524Z,54.62
2022-11-23T01:23:05.432Z,45.92
2022-11-23T01:24:05.425Z,44.47
2022-11-23T01:25:05.450Z,44.96
2022-11-23T01:26:05.445Z,44.96
2022-11-23T01:27:05.398Z,40.44
2022-11-23T01:28:05.398Z,40.28
2022-11-23T01:29:05.390Z,46.25
2022-11-23T01:30:05.412Z,45.76
2022-11-23T01:31:05.392Z,46.25
2022-11-23T01:32:05.360Z,51.88
2022-11-23T01:33:05.401Z,52.85
2022-11-23T01:34:05.432Z,45.28
2022-11-23T01:35:05.388Z,43.51
2022-11-23T01:36:05.330Z,44.15
2022-11-23T01:37:05.320Z,47.37
2022-11-23T01:38:05.313Z,49.31
2022-11-23T01:39:05.301Z,42.70
2022-11-23T01:40:05.442Z,44.63
2022-11-23T01:41:05.284Z,40.77
2022-11-23T01:42:05.269Z,46.41
2022-11-23T01:43:05.265Z,46.73
2022-11-23T01:44:05.262Z,46.57
2022-11-23T01:45:05.271Z,45.60
2022-11-23T01:46:05.248Z,52.05
2022-11-23T01:47:05.232Z,49.63
2022-11-23T01:48:05.237Z,43.99
2022-11-23T01:49:05.210Z,50.60
2022-11-23T01:50:05.229Z,46.25
2022-11-23T01:51:05.200Z,40.93
2022-11-23T01:52:06.196Z,40.93
2022-11-23T01:53:05.194Z,39.96
2022-11-23T01:54:05.169Z,42.22
2022-11-23T01:55:08.664Z,40.44
2022-11-23T01:56:06.168Z,41.73
2022-11-23T01:57:05.146Z,42.86
2022-11-23T01:58:05.146Z,40.44
2022-11-23T01:59:05.134Z,42.54
2022-11-23T02:00:05.195Z,45.60
2022-11-23T02:01:05.124Z,43.34
2022-11-23T02:02:05.114Z,45.92
2022-11-23T02:03:05.175Z,43.02
2022-11-23T02:04:05.091Z,40.28
2022-11-23T02:05:05.109Z,39.48
2022-11-23T02:06:05.073Z,40.12
2022-11-23T02:07:05.135Z,41.73
2022-11-23T02:08:05.065Z,47.05
2022-11-23T02:09:05.064Z,44.31
2022-11-23T02:10:05.078Z,44.79
2022-11-23T02:11:05.036Z,44.79
2022-11-23T02:12:05.028Z,44.96
2022-11-23T02:13:05.018Z,46.73
2022-11-23T02:14:05.015Z,47.21
2022-11-23T02:15:05.036Z,42.86
2022-11-23T02:16:04.996Z,46.08
2022-11-23T02:17:04.988Z,45.76
2022-11-23T02:18:05.029Z,42.06
2022-11-23T02:19:04.980Z,43.51
2022-11-23T02:20:05.003Z,52.05
2022-11-23T02:21:04.980Z,45.60
2022-11-23T02:22:04.946Z,45.92
2022-11-23T02:23:04.942Z,49.63
2022-11-23T02:24:04.936Z,41.41
2022-11-23T02:25:04.911Z,43.83
2022-11-23T02:26:05.948Z,43.51
2022-11-23T02:27:04.911Z,45.12
2022-11-23T02:28:04.900Z,43.02
2022-11-23T02:29:04.890Z,45.28
2022-11-23T02:30:04.881Z,43.67
2022-11-23T02:31:04.906Z,42.22
2022-11-23T02:32:04.858Z,44.79
2022-11-23T02:33:05.866Z,50.11
2022-11-23T02:34:04.855Z,49.63
2022-11-23T02:35:04.850Z,43.34
2022-11-23T02:36:04.862Z,46.57
2022-11-23T02:37:04.823Z,44.31
2022-11-23T02:38:04.841Z,42.22
2022-11-23T02:39:04.814Z,48.02
2022-11-23T02:40:04.967Z,42.54
2022-11-23T02:41:04.823Z,44.96
2022-11-23T02:42:04.784Z,44.47
2022-11-23T02:43:04.781Z,43.99
2022-11-23T02:44:04.779Z,48.18
2022-11-23T02:45:04.759Z,46.73
2022-11-23T02:46:04.790Z,49.15
2022-11-23T02:47:04.774Z,45.76
2022-11-23T02:48:04.744Z,50.92
2022-11-23T02:49:04.725Z,48.82
2022-11-23T02:50:04.746Z,48.34
2022-11-23T02:51:04.765Z,44.96
2022-11-23T02:52:04.705Z,47.70
2022-11-23T02:53:05.743Z,45.92
2022-11-23T02:54:04.688Z,45.92
2022-11-23T02:55:04.690Z,45.76
2022-11-23T02:56:04.742Z,49.15
2022-11-23T02:57:04.657Z,47.05
2022-11-23T02:58:04.676Z,42.06
2022-11-23T02:59:04.642Z,48.66
2022-11-23T03:00:04.638Z,51.08
2022-11-23T03:01:04.776Z,51.40
2022-11-23T03:02:04.623Z,44.79
2022-11-23T03:03:04.611Z,44.31
2022-11-23T03:04:04.600Z,46.41
2022-11-23T03:05:04.593Z,48.82
2022-11-23T03:06:04.611Z,50.76
2022-11-23T03:07:04.605Z,50.92
2022-11-23T03:08:04.570Z,49.47
2022-11-23T03:09:04.564Z,44.15
2022-11-23T03:10:04.552Z,47.70
2022-11-23T03:11:04.569Z,42.70
2022-11-23T03:12:04.543Z,43.99
2022-11-23T03:13:04.536Z,48.66
2022-11-23T03:14:04.521Z,41.73
2022-11-23T03:15:04.515Z,43.51
2022-11-23T03:16:04.546Z,48.50
2022-11-23T03:17:04.497Z,52.37
2022-11-23T03:18:04.485Z,50.43
2022-11-23T03:19:04.480Z,44.63
2022-11-23T03:20:04.462Z,43.51
2022-11-23T03:21:04.485Z,49.47
2022-11-23T03:22:04.452Z,48.02
2022-11-23T03:23:04.441Z,47.86
2022-11-23T03:24:04.431Z,53.33
2022-11-23T03:25:04.429Z,58.97
2022-11-23T03:26:07.363Z,46.25
2022-11-23T03:27:06.414Z,51.08
2022-11-23T03:28:04.403Z,49.47
2022-11-23T03:29:04.406Z,54.62
2022-11-23T03:30:04.399Z,47.37
2022-11-23T03:31:04.382Z,52.21
2022-11-23T03:32:04.400Z,45.60
2022-11-23T03:33:04.392Z,51.24
2022-11-23T03:34:04.372Z,44.31
2022-11-23T03:35:04.365Z,45.92
2022-11-23T03:36:04.344Z,47.21
2022-11-23T03:37:04.364Z,45.12
2022-11-23T03:38:04.328Z,49.95
2022-11-23T03:39:04.316Z,46.25
2022-11-23T03:40:04.303Z,44.96
2022-11-23T03:41:04.296Z,50.60
2022-11-23T03:42:04.318Z,44.79
2022-11-23T03:43:04.282Z,46.41
2022-11-23T03:44:04.266Z,53.50
2022-11-23T03:45:04.279Z,46.89
2022-11-23T03:46:04.247Z,45.76
2022-11-23T03:47:04.276Z,57.20
2022-11-23T03:48:04.238Z,45.60
2022-11-23T03:49:04.271Z,44.63
2022-11-23T03:50:04.220Z,42.54
2022-11-23T03:51:04.211Z,44.63
2022-11-23T03:52:04.311Z,56.07
2022-11-23T03:53:05.215Z,48.66
2022-11-23T03:54:04.185Z,47.05
2022-11-23T03:55:04.181Z,52.53
2022-11-23T03:56:04.167Z,47.53
2022-11-23T03:57:04.187Z,45.44
2022-11-23T03:58:04.158Z,47.37
2022-11-23T03:59:04.149Z,52.53
2022-11-23T04:00:04.142Z,52.21
2022-11-23T04:01:04.176Z,51.08
2022-11-23T04:02:04.142Z,46.25
2022-11-23T04:03:04.109Z,48.98
2022-11-23T04:04:04.105Z,56.24
2022-11-23T04:05:04.090Z,44.79
2022-11-23T04:06:04.091Z,44.96
2022-11-23T04:07:04.237Z,54.95
2022-11-23T04:08:04.078Z,51.08
2022-11-23T04:09:04.063Z,50.60
2022-11-23T04:10:04.056Z,51.24
2022-11-23T04:11:04.047Z,52.53
2022-11-23T04:12:04.081Z,52.85
2022-11-23T04:13:04.075Z,48.34
2022-11-23T04:14:04.029Z,45.92
2022-11-23T04:15:04.010Z,55.75
2022-11-23T04:16:04.002Z,60.26
2022-11-23T04:17:04.043Z,54.79
2022-11-23T04:18:03.994Z,51.88
2022-11-23T04:19:03.972Z,49.95
2022-11-23T04:20:03.969Z,48.50
2022-11-23T04:21:03.957Z,48.98
2022-11-23T04:22:03.987Z,54.14
2022-11-23T04:23:03.939Z,56.56
2022-11-23T04:24:03.947Z,57.20
2022-11-23T04:25:03.927Z,57.20
2022-11-23T04:26:03.921Z,53.33
2022-11-23T04:27:03.943Z,59.62
2022-11-23T04:28:03.900Z,63.00
2022-11-23T04:29:03.889Z,59.94
2022-11-23T04:30:03.902Z,48.34
2022-11-23T04:31:03.878Z,53.01
2022-11-23T04:32:03.894Z,56.40
2022-11-23T04:33:03.863Z,63.97
2022-11-23T04:34:03.853Z,55.43
2022-11-23T04:35:03.845Z,54.95
2022-11-23T04:36:03.833Z,60.26
2022-11-23T04:37:03.862Z,55.27
2022-11-23T04:38:03.819Z,57.69
2022-11-23T04:39:03.809Z,59.78
2022-11-23T04:40:03.816Z,51.88
2022-11-23T04:41:03.792Z,56.07
2022-11-23T04:42:03.816Z,53.82
2022-11-23T04:43:03.793Z,52.37
2022-11-23T04:44:03.853Z,49.95
2022-11-23T04:45:03.765Z,63.33
2022-11-23T04:46:03.750Z,54.30
2022-11-23T04:47:03.796Z,62.68
2022-11-23T04:48:03.752Z,57.36
2022-11-23T04:49:03.728Z,54.79
2022-11-23T04:50:03.730Z,55.43
2022-11-23T04:51:03.711Z,53.17
2022-11-23T04:52:03.746Z,57.85
2022-11-23T04:53:03.689Z,58.65
2022-11-23T04:54:03.698Z,58.17
2022-11-23T04:55:03.677Z,56.56
2022-11-23T04:56:03.679Z,52.85
2022-11-23T04:57:03.711Z,54.46
2022-11-23T04:58:03.657Z,60.10
2022-11-23T04:59:03.664Z,59.62
2022-11-23T05:00:03.641Z,49.79
2022-11-23T05:01:03.723Z,50.43
2022-11-23T05:02:03.657Z,48.02
2022-11-23T05:03:03.618Z,52.69
2022-11-23T05:04:03.620Z,59.14
2022-11-23T05:05:03.604Z,57.04
2022-11-23T05:06:03.591Z,53.33
2022-11-23T05:07:03.806Z,58.01
2022-11-23T05:08:03.578Z,51.56
2022-11-23T05:09:03.569Z,52.69
2022-11-23T05:10:03.577Z,60.10
2022-11-23T05:11:03.556Z,56.56
2022-11-23T05:12:03.569Z,55.75
2022-11-23T05:13:03.533Z,56.24
2022-11-23T05:14:03.530Z,60.91
2022-11-23T05:15:03.519Z,59.94
2022-11-23T05:16:03.510Z,53.98
2022-11-23T05:17:03.536Z,63.00
2022-11-23T05:18:03.491Z,60.10
2022-11-23T05:19:03.495Z,63.00
2022-11-23T05:20:03.482Z,48.50
2022-11-23T05:21:03.473Z,49.31
2022-11-23T05:22:03.495Z,60.42
2022-11-23T05:23:03.461Z,60.75
2022-11-23T05:24:03.444Z,53.01
2022-11-23T05:25:03.445Z,65.10
2022-11-23T05:26:03.425Z,68.48
2022-11-23T05:27:03.443Z,52.21
2022-11-23T05:28:11.419Z,60.42
2022-11-23T05:29:05.388Z,54.14
2022-11-23T05:30:03.436Z,65.90
2022-11-23T05:31:03.390Z,60.75
2022-11-23T05:32:03.434Z,61.39
2022-11-23T05:33:03.370Z,64.94
2022-11-23T05:34:04.365Z,63.97
2022-11-23T05:35:03.350Z,67.35
2022-11-23T05:36:03.341Z,66.06
2022-11-23T05:37:03.368Z,62.20
2022-11-23T05:38:03.321Z,62.20
2022-11-23T05:39:03.313Z,62.68
2022-11-23T05:40:03.313Z,58.65
2022-11-23T05:41:03.290Z,51.88
2022-11-23T05:42:03.323Z,57.69
2022-11-23T05:43:03.284Z,61.39
2022-11-23T05:44:03.277Z,63.97
2022-11-23T05:45:07.409Z,68.64
2022-11-23T05:46:04.252Z,64.94
2022-11-23T05:47:03.280Z,58.97
2022-11-23T05:48:03.236Z,65.74
2022-11-23T05:49:03.265Z,61.87
2022-11-23T05:50:03.226Z,61.07
2022-11-23T05:51:05.475Z,62.52
2022-11-23T05:52:04.249Z,57.36
2022-11-23T05:53:03.197Z,57.69
2022-11-23T05:54:03.186Z,63.49
2022-11-23T05:55:03.189Z,65.74
2022-11-23T05:56:03.174Z,64.61
2022-11-23T05:57:03.201Z,65.26
2022-11-23T05:58:03.156Z,59.14
2022-11-23T05:59:03.175Z,58.65
2022-11-23T06:00:03.151Z,64.29
2022-11-23T06:01:03.138Z,63.49
2022-11-23T06:02:03.203Z,68.00
2022-11-23T06:03:03.120Z,65.10
2022-11-23T06:04:03.155Z,58.17
2022-11-23T06:05:03.154Z,65.10
2022-11-23T06:06:03.154Z,67.03
2022-11-23T06:07:03.312Z,65.74
2022-11-23T06:08:03.087Z,63.65
2022-11-23T06:09:03.071Z,60.75
2022-11-23T06:10:03.057Z,68.64
2022-11-23T06:11:03.053Z,66.23
2022-11-23T06:12:03.312Z,65.42
2022-11-23T06:13:03.041Z,65.26
2022-11-23T06:14:03.030Z,63.49
2022-11-23T06:15:03.027Z,55.43
2022-11-23T06:16:03.015Z,66.23
2022-11-23T06:17:03.091Z,69.77
2022-11-23T06:18:02.990Z,67.03
2022-11-23T06:19:02.988Z,63.65
2022-11-23T06:20:02.975Z,58.01
2022-11-23T06:21:03.975Z,69.13
2022-11-23T06:22:02.963Z,62.36
2022-11-23T06:23:02.979Z,66.87
2022-11-23T06:24:02.940Z,67.19
2022-11-23T06:25:02.943Z,58.33
2022-11-23T06:26:02.933Z,53.50
2022-11-23T06:27:02.929Z,66.23
2022-11-23T06:28:02.949Z,65.26
2022-11-23T06:29:02.907Z,63.33
2022-11-23T06:30:02.903Z,58.65
2022-11-23T06:31:02.907Z,65.26
2022-11-23T06:32:02.894Z,65.74
2022-11-23T06:33:02.905Z,61.07
2022-11-23T06:34:02.860Z,60.75
2022-11-23T06:35:02.851Z,60.26
2022-11-23T06:36:02.855Z,60.26
2022-11-23T06:37:02.851Z,65.42
2022-11-23T06:38:02.860Z,68.96
2022-11-23T06:39:02.824Z,60.75
2022-11-23T06:40:02.828Z,66.06
2022-11-23T06:41:02.812Z,58.17
2022-11-23T06:42:30.987Z,68.16
2022-11-23T06:43:04.822Z,66.87
2022-11-23T06:44:02.781Z,66.23
2022-11-23T06:45:02.781Z,68.48
2022-11-23T06:46:02.764Z,65.58
2022-11-23T06:47:02.760Z,66.87
2022-11-23T06:48:03.789Z,58.17
2022-11-23T06:49:02.755Z,63.49
2022-11-23T06:50:02.761Z,61.23
2022-11-23T06:51:02.744Z,64.13
2022-11-23T06:52:02.722Z,61.07
2022-11-23T06:53:02.754Z,61.71
2022-11-23T06:54:02.706Z,65.42
2022-11-23T06:55:02.702Z,55.59
2022-11-23T06:56:02.702Z,67.03
2022-11-23T06:57:02.679Z,60.91
2022-11-23T06:58:02.702Z,63.65
2022-11-23T06:59:02.661Z,56.72
2022-11-23T07:00:02.657Z,65.10
2022-11-23T07:01:02.713Z,67.84
2022-11-23T07:02:02.638Z,61.71
2022-11-23T07:03:02.656Z,60.42
2022-11-23T07:04:02.623Z,59.14
2022-11-23T07:05:02.615Z,67.84
2022-11-23T07:06:02.620Z,65.26
2022-11-23T07:07:02.592Z,62.68
2022-11-23T07:08:03.622Z,66.55
2022-11-23T07:09:02.578Z,62.52
2022-11-23T07:10:06.804Z,58.17
2022-11-23T07:11:03.568Z,57.20
2022-11-23T07:12:02.559Z,64.29
2022-11-23T07:13:02.573Z,61.55
2022-11-23T07:14:02.540Z,66.71
2022-11-23T07:15:02.547Z,67.03
2022-11-23T07:16:02.525Z,63.65
2022-11-23T07:17:02.519Z,59.78
2022-11-23T07:18:02.651Z,63.49
2022-11-23T07:19:02.503Z,62.36
2022-11-23T07:20:02.565Z,58.33
2022-11-23T07:21:02.478Z,61.23
2022-11-23T07:22:03.482Z,65.58
2022-11-23T07:23:02.734Z,61.07
2022-11-23T07:24:02.462Z,58.65
2022-11-23T07:25:02.464Z,65.42
2022-11-23T07:26:02.448Z,63.33
2022-11-23T07:27:02.454Z,67.84
2022-11-23T07:28:02.465Z,65.10
2022-11-23T07:29:02.439Z,60.91
2022-11-23T07:30:02.437Z,56.88
2022-11-23T07:31:02.408Z,58.97
2022-11-23T07:32:02.401Z,63.16
2022-11-23T07:33:02.423Z,63.16
2022-11-23T07:34:02.378Z,53.66
2022-11-23T07:35:02.398Z,56.72
2022-11-23T07:36:02.361Z,64.29
2022-11-23T07:37:02.479Z,59.78
2022-11-23T07:38:02.381Z,64.94
2022-11-23T07:39:02.334Z,63.33
2022-11-23T07:40:02.705Z,65.10
2022-11-23T07:41:02.359Z,65.10
2022-11-23T07:42:30.913Z,64.45
2022-11-23T07:43:04.354Z,57.52
2022-11-23T07:44:02.312Z,55.27
2022-11-23T07:45:02.292Z,60.26
2022-11-23T07:46:02.281Z,61.07
2022-11-23T07:47:02.284Z,60.59
2022-11-23T07:48:02.326Z,58.97
2022-11-23T07:49:02.272Z,59.78
2022-11-23T07:50:02.247Z,67.35
2022-11-23T07:51:02.309Z,64.61
2022-11-23T07:52:02.238Z,66.23
2022-11-23T07:53:02.276Z,61.39
2022-11-23T07:54:02.225Z,65.42
2022-11-23T07:55:02.214Z,66.06
2022-11-23T07:56:02.203Z,57.69
2022-11-23T07:57:02.209Z,57.52
2022-11-23T07:58:02.227Z,65.10
2022-11-23T07:59:02.223Z,65.10
2022-11-23T08:00:02.175Z,58.01
2022-11-23T08:01:02.160Z,59.30
2022-11-23T08:02:02.227Z,65.58
2022-11-23T08:03:26.700Z,66.23
2022-11-23T08:04:04.165Z,56.72
2022-11-23T08:05:02.137Z,60.75
2022-11-23T08:06:02.122Z,58.65
2022-11-23T08:07:02.118Z,66.06
2022-11-23T08:08:02.131Z,57.52
2022-11-23T08:09:02.144Z,58.49
2022-11-23T08:10:02.103Z,57.36
2022-11-23T08:11:03.094Z,67.35
2022-11-23T08:12:02.085Z,61.55
2022-11-23T08:13:02.073Z,61.23
2022-11-23T08:14:02.090Z,58.49
2022-11-23T08:15:02.053Z,61.55
2022-11-23T08:16:02.047Z,56.72
2022-11-23T08:17:02.039Z,57.20
2022-11-23T08:18:02.027Z,58.01
2022-11-23T08:19:02.045Z,59.78
2022-11-23T08:20:02.051Z,60.59
2022-11-23T08:21:01.998Z,52.69
2022-11-23T08:22:01.992Z,55.75
2022-11-23T08:23:01.983Z,58.33
2022-11-23T08:24:02.004Z,58.65
2022-11-23T08:25:01.961Z,56.24
2022-11-23T08:26:01.955Z,61.23
2022-11-23T08:27:01.949Z,53.01
2022-11-23T08:28:01.954Z,57.85
2022-11-23T08:29:01.958Z,54.14
2022-11-23T08:30:01.931Z,62.36
2022-11-23T08:31:01.919Z,59.78
2022-11-23T08:32:01.924Z,58.33
2022-11-23T08:33:01.905Z,61.23
2022-11-23T08:34:03.761Z,63.97
2022-11-23T08:35:02.884Z,55.91
2022-11-23T08:36:01.876Z,59.14
2022-11-23T08:37:01.866Z,55.11
2022-11-23T08:38:01.860Z,60.26
2022-11-23T08:39:01.886Z,65.26
2022-11-23T08:40:01.844Z,64.13
2022-11-23T08:41:01.829Z,57.69
2022-11-23T08:42:01.819Z,53.98
2022-11-23T08:43:01.832Z,61.07
2022-11-23T08:44:01.839Z,61.87
2022-11-23T08:45:01.800Z,63.49
2022-11-23T08:46:05.589Z,55.75
2022-11-23T08:47:03.789Z,61.23
2022-11-23T08:48:01.809Z,63.16
2022-11-23T08:49:01.790Z,56.07
2022-11-23T08:50:01.759Z,57.52
2022-11-23T08:51:01.755Z,62.84
2022-11-23T08:52:01.742Z,57.52
2022-11-23T08:53:01.737Z,58.65
2022-11-23T08:54:01.771Z,62.68
2022-11-23T08:55:01.803Z,53.01
2022-11-23T08:56:01.709Z,61.07
2022-11-23T08:57:01.702Z,65.58
2022-11-23T08:58:01.713Z,56.88
2022-11-23T08:59:01.709Z,54.46
2022-11-23T09:00:01.676Z,52.69
2022-11-23T09:01:01.675Z,53.66
2022-11-23T09:02:01.694Z,58.49
2022-11-23T09:03:01.641Z,53.01
2022-11-23T09:04:02.676Z,57.69
2022-11-23T09:05:01.638Z,58.33
2022-11-23T09:06:01.617Z,62.68
2022-11-23T09:07:02.643Z,53.01
2022-11-23T09:08:01.624Z,58.01
2022-11-23T09:09:01.628Z,60.26
2022-11-23T09:10:01.592Z,64.45
2022-11-23T09:11:01.592Z,54.62
2022-11-23T09:12:01.575Z,54.14
2022-11-23T09:13:01.576Z,57.20
2022-11-23T09:14:01.598Z,63.16
2022-11-23T09:15:01.547Z,60.42
2022-11-23T09:16:01.543Z,64.78
2022-11-23T09:17:01.540Z,54.95
2022-11-23T09:18:01.520Z,62.84
2022-11-23T09:19:01.552Z,58.01
2022-11-23T09:20:01.525Z,55.75
2022-11-23T09:21:01.505Z,54.95
2022-11-23T09:22:01.514Z,59.78
2022-11-23T09:23:01.521Z,58.33
2022-11-23T09:24:01.508Z,59.78
2022-11-23T09:25:01.567Z,55.75
2022-11-23T09:26:01.469Z,60.59
2022-11-23T09:27:01.458Z,59.62
2022-11-23T09:28:01.450Z,64.94
2022-11-23T09:29:01.516Z,62.84
2022-11-23T09:30:01.435Z,54.62
2022-11-23T09:31:01.437Z,54.30
2022-11-23T09:32:01.423Z,60.59
2022-11-23T09:33:01.421Z,49.15
2022-11-23T09:34:01.431Z,53.98
2022-11-23T09:35:01.410Z,52.85
2022-11-23T09:36:01.418Z,57.20
2022-11-23T09:37:01.374Z,60.59
2022-11-23T09:38:01.368Z,59.46
2022-11-23T09:39:01.391Z,57.04
2022-11-23T09:40:01.350Z,62.04
2022-11-23T09:41:01.340Z,64.29
2022-11-23T09:42:01.332Z,62.36
2022-11-23T09:43:01.342Z,60.42
2022-11-23T09:44:01.354Z,58.01
2022-11-23T09:45:01.325Z,62.04
2022-11-23T09:46:01.303Z,60.75
2022-11-23T09:47:01.284Z,56.07
2022-11-23T09:48:01.283Z,59.78
2022-11-23T09:49:01.270Z,55.91
2022-11-23T09:50:01.330Z,59.94
2022-11-23T09:51:01.304Z,63.65
2022-11-23T09:52:01.259Z,56.24
2022-11-23T09:53:02.239Z,52.53
2022-11-23T09:54:01.264Z,55.59
2022-11-23T09:55:01.226Z,60.26
2022-11-23T09:56:01.218Z,53.50
2022-11-23T09:57:02.075Z,57.69
2022-11-23T09:58:02.200Z,60.59
2022-11-23T09:59:01.195Z,61.23
2022-11-23T10:00:01.213Z,57.20
2022-11-23T10:01:01.193Z,62.68
2022-11-23T10:02:01.239Z,60.10
2022-11-23T10:03:01.155Z,58.17
2022-11-23T10:04:01.146Z,55.91
2022-11-23T10:05:01.177Z,68.16
2022-11-23T10:06:01.159Z,54.62
2022-11-23T10:07:01.130Z,52.53
2022-11-23T10:08:01.127Z,63.81
2022-11-23T10:09:01.152Z,62.68
2022-11-23T10:10:01.165Z,62.20
2022-11-23T10:11:01.090Z,59.78
2022-11-23T10:12:01.085Z,55.43
2022-11-23T10:13:01.072Z,58.81
2022-11-23T10:14:01.078Z,59.14
2022-11-23T10:15:01.084Z,60.59
2022-11-23T10:16:01.043Z,54.79
2022-11-23T10:17:01.043Z,61.55
2022-11-23T10:18:01.044Z,53.01
2022-11-23T10:19:01.025Z,51.40
2022-11-23T10:20:01.055Z,56.07
2022-11-23T10:21:01.032Z,60.91
2022-11-23T10:22:00.997Z,52.21
2022-11-23T10:23:00.987Z,53.33
2022-11-23T10:24:00.975Z,62.68
2022-11-23T10:25:00.999Z,57.69
2022-11-23T10:26:00.959Z,52.05
2022-11-23T10:27:00.949Z,53.98
2022-11-23T10:28:00.951Z,62.68
2022-11-23T10:29:00.943Z,59.78
2022-11-23T10:30:00.967Z,59.14
2022-11-23T10:31:00.921Z,56.88
2022-11-23T10:32:00.920Z,58.01
2022-11-23T10:33:00.920Z,57.04
2022-11-23T10:34:00.891Z,55.59
2022-11-23T10:35:00.919Z,55.27
2022-11-23T10:36:00.925Z,65.10
2022-11-23T10:37:00.945Z,64.45
2022-11-23T10:38:01.900Z,58.17
2022-11-23T10:39:00.862Z,60.75
2022-11-23T10:40:00.872Z,60.91
2022-11-23T10:41:01.846Z,60.75
2022-11-23T10:42:00.829Z,61.07
2022-11-23T10:43:00.833Z,61.55
2022-11-23T10:44:00.815Z,58.33
2022-11-23T10:45:00.864Z,64.45
2022-11-23T10:46:00.803Z,56.07
2022-11-23T10:47:00.797Z,63.81
2022-11-23T10:48:01.821Z,60.26
2022-11-23T10:49:00.784Z,66.71
2022-11-23T10:50:00.765Z,61.39
2022-11-23T10:51:01.790Z,60.26
2022-11-23T10:52:00.755Z,61.71
2022-11-23T10:53:00.741Z,63.49
2022-11-23T10:54:04.883Z,59.14
2022-11-23T10:55:01.731Z,55.75
2022-11-23T10:56:00.756Z,65.58
2022-11-23T10:57:00.712Z,53.33
2022-11-23T10:58:00.708Z,54.95
2022-11-23T10:59:00.708Z,60.42
2022-11-23T11:00:00.697Z,51.72
2022-11-23T11:01:00.714Z,67.03
2022-11-23T11:02:00.752Z,63.49
2022-11-23T11:03:00.665Z,53.01
2022-11-23T11:04:00.660Z,52.85
2022-11-23T11:05:00.653Z,57.85
2022-11-23T11:06:09.949Z,69.61
2022-11-23T11:07:02.639Z,63.97
2022-11-23T11:08:00.625Z,53.82
2022-11-23T11:09:03.555Z,65.26
2022-11-23T11:10:01.607Z,62.52
2022-11-23T11:11:00.634Z,60.75
2022-11-23T11:12:00.600Z,58.65
2022-11-23T11:13:00.586Z,60.75
2022-11-23T11:14:00.575Z,58.17
2022-11-23T11:15:10.396Z,60.59
2022-11-23T11:16:02.592Z,58.01
2022-11-23T11:17:00.554Z,54.62
2022-11-23T11:18:00.545Z,54.79
2022-11-23T11:19:00.536Z,64.13
2022-11-23T11:20:00.534Z,60.59
2022-11-23T11:21:00.569Z,52.37
2022-11-23T11:22:00.552Z,51.88
2022-11-23T11:23:00.506Z,61.23
2022-11-23T11:24:00.496Z,54.46
2022-11-23T11:25:00.488Z,61.87
2022-11-23T11:26:00.587Z,58.65
2022-11-23T11:27:00.479Z,66.55
2022-11-23T11:28:00.477Z,69.29
2022-11-23T11:29:00.455Z,59.46
2022-11-23T11:30:00.453Z,58.33
2022-11-23T11:31:00.457Z,62.36
2022-11-23T11:32:00.457Z,63.97
2022-11-23T11:33:00.417Z,67.35
2022-11-23T11:34:00.415Z,55.43
2022-11-23T11:35:00.409Z,61.39
2022-11-23T11:36:00.405Z,52.05
2022-11-23T11:37:00.418Z,58.81
2022-11-23T11:38:00.381Z,63.81
2022-11-23T11:39:18.883Z,58.65
2022-11-23T11:40:02.403Z,57.52
2022-11-23T11:41:00.353Z,60.59
2022-11-23T11:42:00.379Z,57.20
2022-11-23T11:43:00.371Z,58.01
2022-11-23T11:44:00.343Z,56.72
2022-11-23T11:45:00.327Z,53.98
2022-11-23T11:46:21.798Z,61.23
2022-11-23T11:47:02.346Z,68.96
2022-11-23T11:48:00.310Z,66.06
2022-11-23T11:49:00.290Z,55.11
2022-11-23T11:50:00.324Z,55.91
2022-11-23T11:51:00.270Z,61.55
2022-11-23T11:52:00.402Z,58.81
2022-11-23T11:53:00.256Z,52.69
2022-11-23T11:54:00.280Z,57.20
2022-11-23T11:55:00.234Z,61.07
2022-11-23T11:56:00.244Z,54.62
2022-11-23T11:57:00.296Z,59.14
2022-11-23T11:58:00.239Z,60.75
2022-11-23T11:59:00.241Z,58.33
2022-11-23T12:00:00.200Z,55.11
2022-11-23T12:01:00.188Z,59.46
2022-11-23T12:02:00.212Z,54.62
2022-11-23T12:03:00.225Z,63.97
2022-11-23T12:04:00.160Z,58.65
2022-11-23T12:05:00.166Z,62.84
2022-11-23T12:06:00.155Z,55.11
2022-11-23T12:07:00.339Z,63.16
2022-11-23T12:08:00.204Z,64.45
2022-11-23T12:09:00.124Z,59.30
2022-11-23T12:10:00.124Z,60.91
2022-11-23T12:11:00.107Z,58.81
2022-11-23T12:12:00.345Z,59.78
2022-11-23T12:13:00.085Z,59.94
2022-11-23T12:14:00.086Z,60.59
2022-11-23T12:15:00.072Z,60.91
2022-11-23T12:16:00.072Z,61.07
2022-11-23T12:17:30.871Z,62.04
2022-11-23T12:18:02.048Z,64.29
2022-11-23T12:19:00.044Z,58.65
2022-11-23T12:20:00.030Z,63.16
2022-11-23T12:21:00.030Z,60.75
2022-11-23T12:22:00.157Z,65.26
2022-11-23T12:23:00.000Z,61.87
2022-11-23T12:23:59.994Z,64.45
2022-11-23T12:24:59.988Z,64.78
2022-11-23T12:25:59.976Z,60.26
2022-11-23T12:27:00.003Z,62.04
2022-11-23T12:27:59.962Z,53.82
2022-11-23T12:28:59.968Z,51.24
2022-11-23T12:29:59.948Z,62.52
2022-11-23T12:30:59.939Z,59.62
2022-11-23T12:31:59.940Z,60.10
2022-11-23T12:32:59.960Z,60.26
2022-11-23T12:33:59.917Z,59.62
2022-11-23T12:34:59.944Z,56.24
2022-11-23T12:35:59.889Z,61.23
2022-11-23T12:36:59.897Z,66.23
2022-11-23T12:38:00.133Z,55.43
2022-11-23T12:38:59.875Z,59.78
2022-11-23T12:39:59.868Z,62.68
2022-11-23T12:40:59.855Z,65.74
2022-11-23T12:41:59.851Z,62.52
2022-11-23T12:42:59.863Z,55.43
2022-11-23T12:43:59.831Z,59.14
2022-11-23T12:44:59.815Z,60.59
2022-11-23T12:45:59.812Z,61.55
2022-11-23T12:46:59.798Z,67.68
2022-11-23T12:47:59.823Z,61.55
2022-11-23T12:48:59.786Z,59.62
2022-11-23T12:49:59.778Z,62.20
2022-11-23T12:50:59.786Z,57.04
2022-11-23T12:51:59.760Z,55.27